Time,TemperatureF,DewpointF,PressureIn,WindDirection,WindDirectionDegrees,WindSpeedMPH,WindSpeedGustMPH,Humidity,HourlyPrecipIn,Conditions,Clouds,dailyrainin,SoftwareType,DateUTC
2013-09-21 00:00:00,58.9,55.0,29.67,North,5,9.0,9.0,87,0.00,,,0.00,VWS V14.01,2013-09-21 04:00:00,
2013-09-21 00:01:00,58.9,55.0,29.67,NNE,25,6.0,6.0,87,0.00,,,0.00,VWS V14.01,2013-09-21 04:01:00,
2013-09-21 00:02:00,58.9,55.0,29.67,NNE,22,4.0,4.0,87,0.00,,,0.00,VWS V14.01,2013-09-21 04:02:00,
2013-09-21 00:07:00,58.7,54.8,29.67,NNW,338,0.0,4.0,87,0.00,,,0.00,VWS V14.01,2013-09-21 04:07:00,
2013-09-21 00:12:00,58.6,54.8,29.67,NW,324,2.0,4.0,87,0.00,,,0.00,VWS V14.01,2013-09-21 04:12:00,
2013-09-21 00:17:00,58.6,54.8,29.67,North,360,0.0,4.0,87,0.00,,,0.00,VWS V14.01,2013-09-21 04:17:00,
2013-09-21 00:22:00,58.5,54.7,29.67,NW,317,0.0,4.0,87,0.00,,,0.00,VWS V14.01,2013-09-21 04:22:00,
2013-09-21 00:27:00,58.4,54.5,29.68,North,5,9.0,9.0,87,0.00,,,0.00,VWS V14.01,2013-09-21 04:27:00,
2013-09-21 00:32:00,58.4,54.9,29.68,North,355,0.0,4.0,88,0.00,,,0.00,VWS V14.01,2013-09-21 04:32:00,
2013-09-21 00:37:00,58.3,54.5,29.68,NNW,343,0.0,4.0,87,0.00,,,0.00,VWS V14.01,2013-09-21 04:37:00,
2013-09-21 00:42:00,58.3,54.8,29.68,NNE,23,0.0,4.0,88,0.00,,,0.00,VWS V14.01,2013-09-21 04:42:00,
2013-09-21 00:47:00,58.2,54.4,29.68,North,350,3.0,4.0,87,0.00,,,0.00,VWS V14.01,2013-09-21 04:47:00,
2013-09-21 00:52:00,58.1,54.3,29.68,North,350,1.0,4.0,87,0.00,,,0.00,VWS V14.01,2013-09-21 04:52:00,
2013-09-21 00:57:00,57.9,53.7,29.68,WNW,293,0.0,4.0,86,0.00,,,0.00,VWS V14.01,2013-09-21 04:57:00,
2013-09-21 01:02:00,57.8,53.7,29.68,North,360,0.0,4.0,86,0.00,,,0.00,VWS V14.01,2013-09-21 05:02:00,
2013-09-21 01:07:00,57.7,53.9,29.68,NNW,346,0.0,4.0,87,0.00,,,0.00,VWS V14.01,2013-09-21 05:07:00,
2013-09-21 01:12:00,57.6,54.1,29.68,NW,321,0.0,4.0,88,0.00,,,0.00,VWS V14.01,2013-09-21 05:12:00,
2013-09-21 01:18:00,57.5,54.3,29.68,North,355,0.0,4.0,89,0.00,,,0.00,VWS V14.01,2013-09-21 05:18:00,
2013-09-21 01:23:00,57.4,54.2,29.68,NW,325,1.0,4.0,89,0.00,,,0.00,VWS V14.01,2013-09-21 05:23:00,
2013-09-21 01:28:00,57.4,54.2,29.68,NW,325,0.0,4.0,89,0.00,,,0.00,VWS V14.01,2013-09-21 05:28:00,
2013-09-21 01:33:00,57.3,54.1,29.68,NW,313,0.0,4.0,89,0.00,,,0.00,VWS V14.01,2013-09-21 05:33:00,
2013-09-21 01:38:00,57.3,54.1,29.68,NNW,340,0.0,4.0,89,0.00,,,0.00,VWS V14.01,2013-09-21 05:38:00,
2013-09-21 01:43:00,57.3,54.4,29.68,NW,322,5.0,5.0,90,0.00,,,0.00,VWS V14.01,2013-09-21 05:43:00,
2013-09-21 01:48:00,57.3,54.1,29.68,North,351,0.0,4.0,89,0.00,,,0.00,VWS V14.01,2013-09-21 05:48:00,
2013-09-21 01:53:00,57.2,54.3,29.68,North,351,0.0,4.0,90,0.00,,,0.00,VWS V14.01,2013-09-21 05:53:00,
2013-09-21 01:58:00,57.1,54.5,29.67,NNW,338,4.0,4.0,91,0.01,,,0.01,VWS V14.01,2013-09-21 05:58:00,
2013-09-21 02:03:00,57.0,54.7,29.68,North,5,0.0,4.0,92,0.01,,,0.01,VWS V14.01,2013-09-21 06:03:00,
2013-09-21 02:08:00,56.8,54.5,29.68,NNW,343,0.0,4.0,92,0.01,,,0.01,VWS V14.01,2013-09-21 06:08:00,
2013-09-21 02:13:00,56.7,54.7,29.68,NNW,342,0.0,4.0,93,0.01,,,0.01,VWS V14.01,2013-09-21 06:13:00,
2013-09-21 02:18:00,56.6,54.6,29.68,NNW,342,0.0,4.0,93,0.01,,,0.01,VWS V14.01,2013-09-21 06:18:00,
2013-09-21 02:24:00,56.4,54.4,29.68,North,5,0.0,4.0,93,0.01,,,0.01,VWS V14.01,2013-09-21 06:24:00,
2013-09-21 02:29:00,56.4,54.4,29.68,North,5,0.0,4.0,93,0.01,,,0.01,VWS V14.01,2013-09-21 06:29:00,
2013-09-21 02:34:00,56.3,54.6,29.68,North,5,0.0,4.0,94,0.01,,,0.01,VWS V14.01,2013-09-21 06:34:00,
2013-09-21 02:39:00,56.3,54.6,29.68,North,5,0.0,4.0,94,0.01,,,0.01,VWS V14.01,2013-09-21 06:39:00,
2013-09-21 02:44:00,56.2,54.8,29.68,NNW,348,0.0,4.0,95,0.01,,,0.01,VWS V14.01,2013-09-21 06:44:00,
2013-09-21 02:49:00,56.1,54.4,29.68,NNW,348,0.0,4.0,94,0.01,,,0.01,VWS V14.01,2013-09-21 06:49:00,
2013-09-21 02:54:00,56.1,54.4,29.68,NW,319,0.0,4.0,94,0.01,,,0.01,VWS V14.01,2013-09-21 06:54:00,
2013-09-21 02:59:00,56.0,54.3,29.68,NW,319,0.0,4.0,94,0.00,,,0.01,VWS V14.01,2013-09-21 06:59:00,
2013-09-21 03:04:00,56.0,54.3,29.68,NW,319,0.0,4.0,94,0.00,,,0.01,VWS V14.01,2013-09-21 07:04:00,
2013-09-21 03:09:00,55.9,54.2,29.68,NNW,338,0.0,4.0,94,0.00,,,0.01,VWS V14.01,2013-09-21 07:09:00,
2013-09-21 03:14:00,55.9,54.2,29.68,NNW,344,0.0,4.0,94,0.00,,,0.01,VWS V14.01,2013-09-21 07:14:00,
2013-09-21 03:19:00,55.9,54.5,29.68,North,5,0.0,4.0,95,0.00,,,0.01,VWS V14.01,2013-09-21 07:19:00,
2013-09-21 03:25:00,55.9,54.5,29.67,North,5,0.0,4.0,95,0.00,,,0.01,VWS V14.01,2013-09-21 07:25:00,
2013-09-21 03:30:00,55.9,54.5,29.67,North,5,0.0,4.0,95,0.00,,,0.01,VWS V14.01,2013-09-21 07:30:00,
2013-09-21 03:35:00,55.9,54.5,29.67,North,5,0.0,4.0,95,0.00,,,0.01,VWS V14.01,2013-09-21 07:35:00,
2013-09-21 03:40:00,55.8,54.4,29.67,North,5,0.0,4.0,95,0.00,,,0.01,VWS V14.01,2013-09-21 07:40:00,
2013-09-21 03:45:00,55.8,54.7,29.67,North,5,0.0,4.0,96,0.00,,,0.01,VWS V14.01,2013-09-21 07:45:00,
2013-09-21 03:50:00,55.8,54.7,29.67,NNW,327,0.0,4.0,96,0.00,,,0.01,VWS V14.01,2013-09-21 07:50:00,
2013-09-21 03:55:00,55.9,54.5,29.68,North,360,0.0,4.0,95,0.00,,,0.01,VWS V14.01,2013-09-21 07:55:00,
2013-09-21 04:01:00,55.9,54.2,29.68,North,5,0.0,4.0,94,0.00,,,0.01,VWS V14.01,2013-09-21 08:01:00,
2013-09-21 04:06:00,55.9,54.2,29.67,NNW,340,0.0,4.0,94,0.00,,,0.01,VWS V14.01,2013-09-21 08:06:00,
2013-09-21 04:11:00,55.9,54.2,29.68,North,350,0.0,4.0,94,0.00,,,0.01,VWS V14.01,2013-09-21 08:11:00,
2013-09-21 04:16:00,55.8,54.1,29.68,NNE,19,0.0,4.0,94,0.00,,,0.01,VWS V14.01,2013-09-21 08:16:00,
2013-09-21 04:21:00,55.7,54.0,29.68,North,355,0.0,4.0,94,0.00,,,0.01,VWS V14.01,2013-09-21 08:21:00,
2013-09-21 04:26:00,55.7,53.7,29.68,North,355,0.0,4.0,93,0.00,,,0.01,VWS V14.01,2013-09-21 08:26:00,
2013-09-21 04:31:00,55.6,53.6,29.68,NNW,340,0.0,4.0,93,0.00,,,0.01,VWS V14.01,2013-09-21 08:31:00,
2013-09-21 04:36:00,55.6,53.3,29.68,North,355,0.0,4.0,92,0.00,,,0.01,VWS V14.01,2013-09-21 08:36:00,
2013-09-21 04:41:00,55.5,53.2,29.68,NW,324,0.0,4.0,92,0.00,,,0.01,VWS V14.01,2013-09-21 08:41:00,
2013-09-21 04:46:00,55.5,53.2,29.68,NNW,333,0.0,4.0,92,0.00,,,0.01,VWS V14.01,2013-09-21 08:46:00,
2013-09-21 04:51:00,55.4,53.1,29.68,NNW,342,0.0,4.0,92,0.00,,,0.01,VWS V14.01,2013-09-21 08:51:00,
2013-09-21 04:56:00,55.3,52.7,29.68,NNE,21,0.0,4.0,91,0.00,,,0.01,VWS V14.01,2013-09-21 08:56:00,
2013-09-21 05:01:00,55.3,52.7,29.68,North,9,0.0,4.0,91,0.00,,,0.01,VWS V14.01,2013-09-21 09:01:00,
2013-09-21 05:06:00,55.3,52.7,29.68,North,360,0.0,4.0,91,0.00,,,0.01,VWS V14.01,2013-09-21 09:06:00,
2013-09-21 05:11:00,55.2,52.3,29.68,North,5,0.0,4.0,90,0.00,,,0.01,VWS V14.01,2013-09-21 09:11:00,
2013-09-21 05:17:00,55.2,52.3,29.68,WNW,291,0.0,4.0,90,0.01,,,0.02,VWS V14.01,2013-09-21 09:17:00,
2013-09-21 05:22:00,55.1,52.2,29.68,North,360,0.0,4.0,90,0.01,,,0.02,VWS V14.01,2013-09-21 09:22:00,
2013-09-21 05:27:00,55.1,52.2,29.68,NNE,24,0.0,4.0,90,0.01,,,0.02,VWS V14.01,2013-09-21 09:27:00,
2013-09-21 05:32:00,55.0,52.1,29.68,NNE,17,0.0,4.0,90,0.01,,,0.02,VWS V14.01,2013-09-21 09:32:00,
2013-09-21 05:37:00,54.9,52.0,29.69,NNE,17,0.0,4.0,90,0.01,,,0.02,VWS V14.01,2013-09-21 09:37:00,
2013-09-21 05:42:00,54.9,52.0,29.69,North,9,0.0,4.0,90,0.01,,,0.02,VWS V14.01,2013-09-21 09:42:00,
2013-09-21 05:47:00,54.8,51.9,29.68,NNW,331,0.0,4.0,90,0.01,,,0.02,VWS V14.01,2013-09-21 09:47:00,
2013-09-21 05:52:00,54.8,51.6,29.69,North,10,0.0,4.0,89,0.01,,,0.02,VWS V14.01,2013-09-21 09:52:00,
2013-09-21 05:57:00,54.7,51.5,29.68,WNW,298,0.0,4.0,89,0.01,,,0.02,VWS V14.01,2013-09-21 09:57:00,
2013-09-21 06:02:00,54.7,51.8,29.69,NW,316,0.0,4.0,90,0.01,,,0.02,VWS V14.01,2013-09-21 10:02:00,
2013-09-21 06:07:00,54.7,51.5,29.69,North,349,0.0,4.0,89,0.01,,,0.02,VWS V14.01,2013-09-21 10:07:00,
2013-09-21 06:13:00,54.7,51.5,29.69,NNW,343,0.0,4.0,89,0.01,,,0.02,VWS V14.01,2013-09-21 10:13:00,
2013-09-21 06:18:00,54.7,51.5,29.69,WNW,296,0.0,4.0,89,0.00,,,0.02,VWS V14.01,2013-09-21 10:18:00,
2013-09-21 06:23:00,54.6,51.7,29.69,North,355,0.0,4.0,90,0.00,,,0.02,VWS V14.01,2013-09-21 10:23:00,
2013-09-21 06:28:00,54.6,51.7,29.69,NW,323,0.0,4.0,90,0.00,,,0.02,VWS V14.01,2013-09-21 10:28:00,
2013-09-21 06:33:00,54.5,51.9,29.69,NW,321,0.0,4.0,91,0.00,,,0.02,VWS V14.01,2013-09-21 10:33:00,
2013-09-21 06:38:00,54.3,52.0,29.69,North,5,0.0,4.0,92,0.00,,,0.02,VWS V14.01,2013-09-21 10:38:00,
2013-09-21 06:43:00,54.1,51.8,29.69,North,355,0.0,4.0,92,0.00,,,0.02,VWS V14.01,2013-09-21 10:43:00,
2013-09-21 06:48:00,53.9,51.3,29.69,WNW,289,2.0,4.0,91,0.00,,,0.02,VWS V14.01,2013-09-21 10:48:00,
2013-09-21 06:53:00,53.9,51.3,29.69,WNW,284,0.0,4.0,91,0.00,,,0.02,VWS V14.01,2013-09-21 10:53:00,
2013-09-21 06:58:00,53.8,51.2,29.69,NNW,342,0.0,4.0,91,0.00,,,0.02,VWS V14.01,2013-09-21 10:58:00,
2013-09-21 07:03:00,53.8,51.2,29.69,NW,313,0.0,4.0,91,0.00,,,0.02,VWS V14.01,2013-09-21 11:03:00,
2013-09-21 07:08:00,53.9,51.3,29.69,NNW,340,0.0,4.0,91,0.00,,,0.02,VWS V14.01,2013-09-21 11:08:00,
2013-09-21 07:13:00,53.9,50.7,29.69,NW,313,0.0,4.0,89,0.00,,,0.02,VWS V14.01,2013-09-21 11:13:00,
2013-09-21 07:18:00,53.9,50.4,29.70,NW,323,0.0,4.0,88,0.00,,,0.02,VWS V14.01,2013-09-21 11:18:00,
2013-09-21 07:23:00,53.9,50.1,29.70,NNW,328,0.0,4.0,87,0.00,,,0.02,VWS V14.01,2013-09-21 11:23:00,
2013-09-21 07:28:00,54.0,50.5,29.70,NW,323,0.0,4.0,88,0.00,,,0.02,VWS V14.01,2013-09-21 11:28:00,
2013-09-21 07:34:00,53.9,50.1,29.70,NW,312,0.0,4.0,87,0.00,,,0.02,VWS V14.01,2013-09-21 11:34:00,
2013-09-21 07:39:00,53.9,50.1,29.70,WNW,290,0.0,4.0,87,0.00,,,0.02,VWS V14.01,2013-09-21 11:39:00,
2013-09-21 07:44:00,53.9,49.8,29.70,NW,316,0.0,4.0,86,0.00,,,0.02,VWS V14.01,2013-09-21 11:44:00,
2013-09-21 07:49:00,54.0,49.6,29.71,WNW,295,0.0,4.0,85,0.00,,,0.02,VWS V14.01,2013-09-21 11:49:00,
2013-09-21 07:54:00,54.1,49.7,29.71,NNW,331,0.0,4.0,85,0.00,,,0.02,VWS V14.01,2013-09-21 11:54:00,
2013-09-21 07:59:00,54.1,49.4,29.71,NW,317,0.0,4.0,84,0.00,,,0.02,VWS V14.01,2013-09-21 11:59:00,
2013-09-21 08:05:00,54.2,49.2,29.71,NNW,336,0.0,4.0,83,0.00,,,0.02,VWS V14.01,2013-09-21 12:05:00,
2013-09-21 08:10:00,54.2,49.2,29.71,North,350,5.0,5.0,83,0.00,,,0.02,VWS V14.01,2013-09-21 12:10:00,
2013-09-21 08:15:00,54.2,49.2,29.71,NW,323,0.0,4.0,83,0.00,,,0.02,VWS V14.01,2013-09-21 12:15:00,
2013-09-21 08:20:00,54.2,48.8,29.71,West,267,0.0,4.0,82,0.00,,,0.02,VWS V14.01,2013-09-21 12:20:00,
2013-09-21 08:25:00,54.2,49.5,29.71,NNW,336,0.0,4.0,84,0.00,,,0.02,VWS V14.01,2013-09-21 12:25:00,
2013-09-21 08:30:00,54.2,49.5,29.71,WNW,302,0.0,4.0,84,0.00,,,0.02,VWS V14.01,2013-09-21 12:30:00,
2013-09-21 08:35:00,54.3,49.3,29.72,NW,324,0.0,4.0,83,0.00,,,0.02,VWS V14.01,2013-09-21 12:35:00,
2013-09-21 08:40:00,54.4,50.0,29.72,WNW,289,0.0,4.0,85,0.00,,,0.02,VWS V14.01,2013-09-21 12:40:00,
2013-09-21 08:45:00,54.5,49.8,29.72,NNW,329,0.0,4.0,84,0.00,,,0.02,VWS V14.01,2013-09-21 12:45:00,
2013-09-21 08:50:00,54.5,49.8,29.72,NW,308,0.0,4.0,84,0.00,,,0.02,VWS V14.01,2013-09-21 12:50:00,
2013-09-21 08:55:00,54.4,50.0,29.72,NW,317,0.0,4.0,85,0.00,,,0.02,VWS V14.01,2013-09-21 12:55:00,
2013-09-21 09:00:00,54.2,50.1,29.72,NW,317,0.0,4.0,86,0.00,,,0.02,VWS V14.01,2013-09-21 13:00:00,
2013-09-21 09:05:00,54.2,50.4,29.72,NNW,332,0.0,4.0,87,0.00,,,0.02,VWS V14.01,2013-09-21 13:05:00,
2013-09-21 09:11:00,54.8,50.7,29.72,NNE,31,0.0,4.0,86,0.00,,,0.02,VWS V14.01,2013-09-21 13:11:00,
2013-09-21 09:16:00,55.0,50.6,29.72,NW,307,0.0,4.0,85,0.00,,,0.02,VWS V14.01,2013-09-21 13:16:00,
2013-09-21 09:21:00,54.8,50.7,29.73,NNW,338,0.0,4.0,86,0.00,,,0.02,VWS V14.01,2013-09-21 13:21:00,
2013-09-21 09:26:00,54.5,50.7,29.73,WNW,302,0.0,4.0,87,0.00,,,0.02,VWS V14.01,2013-09-21 13:26:00,
2013-09-21 09:31:00,54.2,50.7,29.73,North,355,0.0,4.0,88,0.00,,,0.02,VWS V14.01,2013-09-21 13:31:00,
2013-09-21 09:36:00,54.0,51.1,29.73,NW,317,0.0,4.0,90,0.00,,,0.02,VWS V14.01,2013-09-21 13:36:00,
2013-09-21 09:41:00,53.6,51.0,29.73,NNW,344,0.0,4.0,91,0.00,,,0.02,VWS V14.01,2013-09-21 13:41:00,
2013-09-21 09:46:00,53.3,51.0,29.73,NNW,335,0.0,4.0,92,0.00,,,0.02,VWS V14.01,2013-09-21 13:46:00,
2013-09-21 09:51:00,53.4,51.1,29.73,NNE,20,1.0,4.0,92,0.00,,,0.02,VWS V14.01,2013-09-21 13:51:00,
2013-09-21 09:57:00,53.8,51.5,29.73,NNW,342,0.0,4.0,92,0.00,,,0.02,VWS V14.01,2013-09-21 13:57:00,
2013-09-21 10:02:00,54.1,51.5,29.73,WNW,288,0.0,4.0,91,0.00,,,0.02,VWS V14.01,2013-09-21 14:02:00,
2013-09-21 10:07:00,54.5,51.9,29.73,NW,324,0.0,4.0,91,0.00,,,0.02,VWS V14.01,2013-09-21 14:07:00,
2013-09-21 10:12:00,54.9,51.1,29.73,NNW,346,6.0,6.0,87,0.00,,,0.02,VWS V14.01,2013-09-21 14:12:00,
2013-09-21 10:17:00,54.9,51.1,29.73,NNW,331,0.0,4.0,87,0.00,,,0.02,VWS V14.01,2013-09-21 14:17:00,
2013-09-21 10:22:00,54.7,51.2,29.74,NNW,331,0.0,4.0,88,0.00,,,0.02,VWS V14.01,2013-09-21 14:22:00,
2013-09-21 10:27:00,54.5,51.0,29.74,NNW,329,10.0,10.0,88,0.00,,,0.02,VWS V14.01,2013-09-21 14:27:00,
2013-09-21 10:32:00,54.1,50.0,29.74,WNW,286,0.0,4.0,86,0.00,,,0.02,VWS V14.01,2013-09-21 14:32:00,
2013-09-21 10:37:00,53.7,50.5,29.74,NNW,342,0.0,4.0,89,0.00,,,0.02,VWS V14.01,2013-09-21 14:37:00,
2013-09-21 10:42:00,53.6,51.0,29.74,NW,316,6.0,6.0,91,0.00,,,0.02,VWS V14.01,2013-09-21 14:42:00,
2013-09-21 10:47:00,53.5,50.6,29.74,NNW,336,2.0,4.0,90,0.00,,,0.02,VWS V14.01,2013-09-21 14:47:00,
2013-09-21 10:52:00,53.2,50.3,29.74,NW,306,4.0,4.0,90,0.00,,,0.02,VWS V14.01,2013-09-21 14:52:00,
2013-09-21 10:57:00,53.1,50.0,29.74,NNW,347,0.0,4.0,89,0.00,,,0.02,VWS V14.01,2013-09-21 14:57:00,
2013-09-21 11:02:00,53.2,50.0,29.74,NW,321,0.0,4.0,89,0.00,,,0.02,VWS V14.01,2013-09-21 15:02:00,
2013-09-21 11:07:00,53.4,50.5,29.74,NW,321,0.0,4.0,90,0.00,,,0.02,VWS V14.01,2013-09-21 15:07:00,
2013-09-21 11:12:00,53.5,50.6,29.74,NW,309,8.0,8.0,90,0.00,,,0.02,VWS V14.01,2013-09-21 15:12:00,
2013-09-21 11:17:00,53.3,50.2,29.74,North,360,0.0,4.0,89,0.00,,,0.02,VWS V14.01,2013-09-21 15:17:00,
2013-09-21 11:22:00,53.1,50.2,29.75,NNW,346,13.0,13.0,90,0.00,,,0.02,VWS V14.01,2013-09-21 15:22:00,
2013-09-21 11:27:00,53.1,50.2,29.75,West,264,8.0,8.0,90,0.00,,,0.02,VWS V14.01,2013-09-21 15:27:00,
2013-09-21 11:33:00,53.2,49.7,29.75,NNW,329,3.0,4.0,88,0.00,,,0.02,VWS V14.01,2013-09-21 15:33:00,
2013-09-21 11:38:00,53.4,49.9,29.75,NW,317,0.0,4.0,88,0.00,,,0.02,VWS V14.01,2013-09-21 15:38:00,
2013-09-21 11:43:00,53.7,49.6,29.74,NW,321,0.0,4.0,86,0.00,,,0.02,VWS V14.01,2013-09-21 15:43:00,
2013-09-21 11:48:00,54.2,49.2,29.74,North,5,0.0,4.0,83,0.00,,,0.02,VWS V14.01,2013-09-21 15:48:00,
2013-09-21 11:53:00,54.7,49.3,29.74,WNW,284,2.0,4.0,82,0.00,,,0.02,VWS V14.01,2013-09-21 15:53:00,
2013-09-21 11:58:00,55.1,49.4,29.75,NNW,338,0.0,4.0,81,0.00,,,0.02,VWS V14.01,2013-09-21 15:58:00,
2013-09-21 12:03:00,55.4,49.0,29.75,NW,318,14.0,14.0,79,0.00,,,0.02,VWS V14.01,2013-09-21 16:03:00,
2013-09-21 12:08:00,55.7,48.3,29.75,WNW,289,4.0,4.0,76,0.00,,,0.02,VWS V14.01,2013-09-21 16:08:00,
2013-09-21 12:13:00,55.8,48.7,29.75,West,277,7.0,7.0,77,0.00,,,0.02,VWS V14.01,2013-09-21 16:13:00,
2013-09-21 12:18:00,56.0,48.5,29.75,West,263,7.0,7.0,76,0.00,,,0.02,VWS V14.01,2013-09-21 16:18:00,
2013-09-21 12:23:00,56.2,48.8,29.75,NNE,23,0.0,4.0,76,0.00,,,0.02,VWS V14.01,2013-09-21 16:23:00,
2013-09-21 12:28:00,56.1,47.9,29.75,WNW,296,0.0,4.0,74,0.00,,,0.02,VWS V14.01,2013-09-21 16:28:00,
2013-09-21 12:33:00,56.1,48.3,29.75,WNW,294,0.0,4.0,75,0.00,,,0.02,VWS V14.01,2013-09-21 16:33:00,
2013-09-21 12:38:00,56.3,48.5,29.75,WNW,294,5.0,5.0,75,0.00,,,0.02,VWS V14.01,2013-09-21 16:38:00,
2013-09-21 12:43:00,56.4,47.5,29.75,West,277,0.0,4.0,72,0.00,,,0.02,VWS V14.01,2013-09-21 16:43:00,
2013-09-21 12:48:00,56.5,48.0,29.75,North,360,0.0,4.0,73,0.00,,,0.02,VWS V14.01,2013-09-21 16:48:00,
2013-09-21 12:53:00,56.6,48.8,29.75,NW,326,0.0,4.0,75,0.00,,,0.02,VWS V14.01,2013-09-21 16:53:00,
2013-09-21 12:58:00,56.6,48.1,29.75,NNW,340,0.0,4.0,73,0.00,,,0.02,VWS V14.01,2013-09-21 16:58:00,
2013-09-21 13:03:00,56.4,47.1,29.75,WNW,286,0.0,4.0,71,0.00,,,0.02,VWS V14.01,2013-09-21 17:03:00,
2013-09-21 13:09:00,56.5,49.0,29.76,NNE,13,4.0,4.0,76,0.00,,,0.02,VWS V14.01,2013-09-21 17:09:00,
2013-09-21 13:14:00,56.4,49.3,29.76,WNW,289,10.0,10.0,77,0.00,,,0.02,VWS V14.01,2013-09-21 17:14:00,
2013-09-21 13:19:00,55.7,49.0,29.76,NNW,339,5.0,5.0,78,0.00,,,0.02,VWS V14.01,2013-09-21 17:19:00,
2013-09-21 13:24:00,54.7,48.3,29.77,North,351,6.0,6.0,79,0.00,,,0.02,VWS V14.01,2013-09-21 17:24:00,
2013-09-21 13:29:00,54.1,49.1,29.77,NNW,331,0.0,4.0,83,0.00,,,0.02,VWS V14.01,2013-09-21 17:29:00,
2013-09-21 13:34:00,54.1,49.1,29.77,NNW,346,0.0,4.0,83,0.00,,,0.02,VWS V14.01,2013-09-21 17:34:00,
2013-09-21 13:39:00,54.6,49.5,29.77,West,272,0.0,4.0,83,0.00,,,0.02,VWS V14.01,2013-09-21 17:39:00,
2013-09-21 13:44:00,55.4,50.0,29.77,NW,319,3.0,4.0,82,0.00,,,0.02,VWS V14.01,2013-09-21 17:44:00,
2013-09-21 13:49:00,55.9,49.2,29.77,NW,315,0.0,4.0,78,0.00,,,0.02,VWS V14.01,2013-09-21 17:49:00,
2013-09-21 13:54:00,55.8,48.0,29.77,WSW,256,1.0,4.0,75,0.00,,,0.02,VWS V14.01,2013-09-21 17:54:00,
2013-09-21 13:59:00,56.0,48.2,29.77,NW,304,0.0,4.0,75,0.00,,,0.02,VWS V14.01,2013-09-21 17:59:00,
2013-09-21 14:04:00,55.9,47.4,29.77,NNE,24,0.0,4.0,73,0.00,,,0.02,VWS V14.01,2013-09-21 18:04:00,
2013-09-21 14:09:00,55.5,47.0,29.77,NW,305,0.0,4.0,73,0.00,,,0.02,VWS V14.01,2013-09-21 18:09:00,
2013-09-21 14:14:00,55.0,47.2,29.77,WNW,294,0.0,4.0,75,0.00,,,0.02,VWS V14.01,2013-09-21 18:14:00,
2013-09-21 14:19:00,54.6,46.8,29.77,North,5,0.0,4.0,75,0.00,,,0.02,VWS V14.01,2013-09-21 18:19:00,
2013-09-21 14:24:00,54.5,46.8,29.77,NW,315,0.0,4.0,75,0.00,,,0.02,VWS V14.01,2013-09-21 18:24:00,
2013-09-21 14:30:00,54.4,47.0,29.78,NW,319,0.0,4.0,76,0.00,,,0.02,VWS V14.01,2013-09-21 18:30:00,
2013-09-21 14:35:00,54.3,46.9,29.78,NNW,345,0.0,4.0,76,0.00,,,0.02,VWS V14.01,2013-09-21 18:35:00,
2013-09-21 14:40:00,54.2,45.4,29.78,NNW,328,8.0,8.0,72,0.00,,,0.02,VWS V14.01,2013-09-21 18:40:00,
2013-09-21 14:45:00,54.2,45.4,29.78,NW,310,8.0,8.0,72,0.00,,,0.02,VWS V14.01,2013-09-21 18:45:00,
2013-09-21 14:50:00,54.2,45.8,29.78,WNW,303,0.0,4.0,73,0.00,,,0.02,VWS V14.01,2013-09-21 18:50:00,
2013-09-21 14:55:00,54.4,45.9,29.78,NNW,337,5.0,5.0,73,0.00,,,0.02,VWS V14.01,2013-09-21 18:55:00,
2013-09-21 15:00:00,54.5,46.4,29.78,North,355,5.0,5.0,74,0.00,,,0.02,VWS V14.01,2013-09-21 19:00:00,
2013-09-21 15:05:00,54.5,45.7,29.78,WNW,287,0.0,4.0,72,0.00,,,0.02,VWS V14.01,2013-09-21 19:05:00,
2013-09-21 15:10:00,54.6,45.4,29.78,NNW,333,0.0,4.0,71,0.00,,,0.02,VWS V14.01,2013-09-21 19:10:00,
2013-09-21 15:15:00,54.8,45.6,29.78,NW,308,7.0,7.0,71,0.00,,,0.02,VWS V14.01,2013-09-21 19:15:00,
2013-09-21 15:21:00,55.3,44.9,29.79,SW,217,0.0,4.0,68,0.00,,,0.02,VWS V14.01,2013-09-21 19:21:00,
2013-09-21 15:26:00,55.9,44.7,29.78,NW,309,13.0,13.0,66,0.00,,,0.02,VWS V14.01,2013-09-21 19:26:00,
2013-09-21 15:31:00,55.6,45.2,29.79,WSW,244,14.0,14.0,68,0.00,,,0.02,VWS V14.01,2013-09-21 19:31:00,
2013-09-21 15:36:00,55.1,45.1,29.78,WNW,284,0.0,4.0,69,0.00,,,0.02,VWS V14.01,2013-09-21 19:36:00,
2013-09-21 15:41:00,55.0,44.7,29.79,NNW,339,0.0,4.0,68,0.00,,,0.02,VWS V14.01,2013-09-21 19:41:00,
2013-09-21 15:46:00,54.9,44.9,29.79,NW,304,8.0,8.0,69,0.00,,,0.02,VWS V14.01,2013-09-21 19:46:00,
2013-09-21 15:51:00,54.4,44.5,29.79,NW,312,0.0,4.0,69,0.00,,,0.02,VWS V14.01,2013-09-21 19:51:00,
2013-09-21 15:56:00,53.9,44.7,29.79,NNW,330,8.0,8.0,71,0.00,,,0.02,VWS V14.01,2013-09-21 19:56:00,
2013-09-21 16:01:00,53.5,45.4,29.79,West,271,3.0,4.0,74,0.00,,,0.02,VWS V14.01,2013-09-21 20:01:00,
2013-09-21 16:06:00,53.2,45.5,29.79,WNW,295,0.0,4.0,75,0.00,,,0.02,VWS V14.01,2013-09-21 20:06:00,
2013-09-21 16:11:00,52.9,44.8,29.79,North,355,0.0,4.0,74,0.00,,,0.02,VWS V14.01,2013-09-21 20:11:00,
2013-09-21 16:17:00,52.8,45.1,29.79,NW,318,0.0,4.0,75,0.00,,,0.02,VWS V14.01,2013-09-21 20:17:00,
2013-09-21 16:22:00,52.6,45.3,29.79,NNW,336,0.0,4.0,76,0.00,,,0.02,VWS V14.01,2013-09-21 20:22:00,
2013-09-21 16:27:00,52.7,45.4,29.79,West,260,0.0,4.0,76,0.00,,,0.02,VWS V14.01,2013-09-21 20:27:00,
2013-09-21 16:32:00,53.0,44.6,29.79,WNW,302,5.0,5.0,73,0.00,,,0.02,VWS V14.01,2013-09-21 20:32:00,
2013-09-21 16:37:00,53.5,45.8,29.79,North,360,0.0,4.0,75,0.00,,,0.02,VWS V14.01,2013-09-21 20:37:00,
2013-09-21 16:42:00,53.6,45.5,29.79,NNE,14,0.0,4.0,74,0.00,,,0.02,VWS V14.01,2013-09-21 20:42:00,
2013-09-21 16:47:00,54.2,45.8,29.79,NNE,13,3.0,4.0,73,0.00,,,0.02,VWS V14.01,2013-09-21 20:47:00,
2013-09-21 16:52:00,54.7,45.1,29.79,NW,306,0.0,4.0,70,0.00,,,0.02,VWS V14.01,2013-09-21 20:52:00,
2013-09-21 16:57:00,54.4,45.2,29.79,NW,323,4.0,4.0,71,0.00,,,0.02,VWS V14.01,2013-09-21 20:57:00,
2013-09-21 17:02:00,54.1,45.7,29.79,WNW,286,0.0,4.0,73,0.00,,,0.02,VWS V14.01,2013-09-21 21:02:00,
2013-09-21 17:07:00,53.8,45.7,29.79,NNW,328,0.0,4.0,74,0.00,,,0.02,VWS V14.01,2013-09-21 21:07:00,
2013-09-21 17:12:00,53.6,45.5,29.79,WNW,292,4.0,4.0,74,0.00,,,0.02,VWS V14.01,2013-09-21 21:12:00,
2013-09-21 17:17:00,53.3,45.2,29.79,NNE,32,6.0,6.0,74,0.00,,,0.02,VWS V14.01,2013-09-21 21:17:00,
2013-09-21 17:23:00,53.0,45.3,29.80,NNW,329,3.0,4.0,75,0.00,,,0.02,VWS V14.01,2013-09-21 21:23:00,
2013-09-21 17:28:00,53.0,45.3,29.80,NNW,329,6.0,6.0,75,0.00,,,0.02,VWS V14.01,2013-09-21 21:28:00,
2013-09-21 17:33:00,52.9,45.5,29.80,NW,313,2.0,4.0,76,0.00,,,0.02,VWS V14.01,2013-09-21 21:33:00,
2013-09-21 17:38:00,52.7,45.0,29.80,SSE,151,0.0,4.0,75,0.00,,,0.02,VWS V14.01,2013-09-21 21:38:00,
2013-09-21 17:43:00,52.6,44.2,29.80,WNW,286,0.0,4.0,73,0.00,,,0.02,VWS V14.01,2013-09-21 21:43:00,
2013-09-21 17:48:00,52.6,44.2,29.80,NW,307,0.0,4.0,73,0.00,,,0.02,VWS V14.01,2013-09-21 21:48:00,
2013-09-21 17:53:00,52.6,44.6,29.80,NW,311,0.0,4.0,74,0.00,,,0.02,VWS V14.01,2013-09-21 21:53:00,
2013-09-21 17:58:00,52.5,44.1,29.80,West,281,0.0,4.0,73,0.00,,,0.02,VWS V14.01,2013-09-21 21:58:00,
2013-09-21 18:03:00,52.4,44.4,29.81,North,355,3.0,4.0,74,0.00,,,0.02,VWS V14.01,2013-09-21 22:03:00,
2013-09-21 18:08:00,52.3,44.3,29.81,WNW,290,0.0,4.0,74,0.00,,,0.02,VWS V14.01,2013-09-21 22:08:00,
2013-09-21 18:13:00,52.1,44.1,29.81,NW,322,0.0,4.0,74,0.00,,,0.02,VWS V14.01,2013-09-21 22:13:00,
2013-09-21 18:18:00,52.1,44.8,29.81,WSW,250,0.0,4.0,76,0.00,,,0.02,VWS V14.01,2013-09-21 22:18:00,
2013-09-21 18:23:00,51.9,44.6,29.81,West,268,0.0,4.0,76,0.00,,,0.02,VWS V14.01,2013-09-21 22:23:00,
2013-09-21 18:28:00,51.6,45.0,29.81,West,281,0.0,4.0,78,0.00,,,0.02,VWS V14.01,2013-09-21 22:28:00,
2013-09-21 18:33:00,51.5,44.2,29.81,WNW,284,0.0,4.0,76,0.00,,,0.02,VWS V14.01,2013-09-21 22:33:00,
2013-09-21 18:38:00,51.4,44.1,29.81,NW,317,0.0,4.0,76,0.00,,,0.02,VWS V14.01,2013-09-21 22:38:00,
2013-09-21 18:43:00,51.3,44.3,29.81,NW,321,0.0,4.0,77,0.00,,,0.02,VWS V14.01,2013-09-21 22:43:00,
2013-09-21 18:48:00,51.3,44.7,29.82,NNW,348,0.0,4.0,78,0.00,,,0.02,VWS V14.01,2013-09-21 22:48:00,
2013-09-21 18:53:00,51.1,44.2,29.82,NW,313,0.0,4.0,77,0.00,,,0.02,VWS V14.01,2013-09-21 22:53:00,
2013-09-21 18:58:00,50.9,44.0,29.82,NW,312,0.0,4.0,77,0.00,,,0.02,VWS V14.01,2013-09-21 22:58:00,
2013-09-21 19:03:00,50.8,43.9,29.82,West,266,0.0,4.0,77,0.00,,,0.02,VWS V14.01,2013-09-21 23:03:00,
2013-09-21 19:09:00,50.7,43.4,29.82,NNW,334,4.0,4.0,76,0.00,,,0.02,VWS V14.01,2013-09-21 23:09:00,
2013-09-21 19:14:00,50.7,43.4,29.83,NW,319,13.0,13.0,76,0.00,,,0.02,VWS V14.01,2013-09-21 23:14:00,
2013-09-21 19:19:00,50.7,43.1,29.82,NNW,329,0.0,4.0,75,0.00,,,0.02,VWS V14.01,2013-09-21 23:19:00,
2013-09-21 19:24:00,50.8,43.2,29.83,NW,313,0.0,4.0,75,0.00,,,0.02,VWS V14.01,2013-09-21 23:24:00,
2013-09-21 19:29:00,50.7,43.1,29.82,NW,319,3.0,4.0,75,0.00,,,0.02,VWS V14.01,2013-09-21 23:29:00,
2013-09-21 19:34:00,50.7,43.1,29.82,NW,318,1.0,4.0,75,0.00,,,0.02,VWS V14.01,2013-09-21 23:34:00,
2013-09-21 19:39:00,50.6,42.6,29.82,North,355,3.0,4.0,74,0.00,,,0.02,VWS V14.01,2013-09-21 23:39:00,
2013-09-21 19:44:00,50.5,42.5,29.82,WNW,294,3.0,4.0,74,0.00,,,0.02,VWS V14.01,2013-09-21 23:44:00,
2013-09-21 19:49:00,50.5,41.8,29.83,NNW,329,3.0,4.0,72,0.00,,,0.02,VWS V14.01,2013-09-21 23:49:00,
2013-09-21 19:54:00,50.5,41.5,29.83,NNW,340,0.0,4.0,71,0.00,,,0.02,VWS V14.01,2013-09-21 23:54:00,
2013-09-21 20:00:00,50.5,42.2,29.83,NNW,338,0.0,4.0,73,0.00,,,0.02,VWS V14.01,2013-09-22 00:00:00,
2013-09-21 20:05:00,50.5,41.8,29.83,NE,51,2.0,4.0,72,0.00,,,0.02,VWS V14.01,2013-09-22 00:05:00,
2013-09-21 20:10:00,50.4,41.7,29.83,NW,310,0.0,4.0,72,0.00,,,0.02,VWS V14.01,2013-09-22 00:10:00,
2013-09-21 20:15:00,50.4,41.7,29.83,WSW,242,1.0,4.0,72,0.00,,,0.02,VWS V14.01,2013-09-22 00:15:00,
2013-09-21 20:20:00,50.4,42.1,29.84,NW,321,3.0,4.0,73,0.00,,,0.02,VWS V14.01,2013-09-22 00:20:00,
2013-09-21 20:25:00,50.4,42.4,29.84,NNW,346,0.0,4.0,74,0.00,,,0.02,VWS V14.01,2013-09-22 00:25:00,
2013-09-21 20:30:00,50.4,42.4,29.84,NNE,32,0.0,4.0,74,0.00,,,0.02,VWS V14.01,2013-09-22 00:30:00,
2013-09-21 20:35:00,50.4,42.8,29.84,North,5,0.0,4.0,75,0.00,,,0.02,VWS V14.01,2013-09-22 00:35:00,
2013-09-21 20:40:00,50.3,42.3,29.84,NW,315,0.0,4.0,74,0.00,,,0.02,VWS V14.01,2013-09-22 00:40:00,
2013-09-21 20:46:00,50.3,42.0,29.85,North,349,0.0,4.0,73,0.00,,,0.02,VWS V14.01,2013-09-22 00:46:00,
2013-09-21 20:51:00,50.3,42.7,29.85,WNW,292,0.0,4.0,75,0.00,,,0.02,VWS V14.01,2013-09-22 00:51:00,
2013-09-21 20:56:00,50.3,43.4,29.85,WNW,302,0.0,4.0,77,0.00,,,0.02,VWS V14.01,2013-09-22 00:56:00,
2013-09-21 21:01:00,50.2,42.9,29.85,WNW,290,2.0,4.0,76,0.00,,,0.02,VWS V14.01,2013-09-22 01:01:00,
2013-09-21 21:06:00,50.0,43.1,29.85,North,350,0.0,4.0,77,0.00,,,0.02,VWS V14.01,2013-09-22 01:06:00,
2013-09-21 21:11:00,49.8,42.9,29.85,NNW,343,0.0,4.0,77,0.00,,,0.02,VWS V14.01,2013-09-22 01:11:00,
2013-09-21 21:16:00,49.7,42.5,29.86,NNW,347,0.0,4.0,76,0.00,,,0.02,VWS V14.01,2013-09-22 01:16:00,
2013-09-21 21:21:00,49.6,43.4,29.86,WNW,300,0.0,4.0,79,0.00,,,0.02,VWS V14.01,2013-09-22 01:21:00,
2013-09-21 21:26:00,49.3,43.1,29.86,NW,313,3.0,4.0,79,0.00,,,0.02,VWS V14.01,2013-09-22 01:26:00,
2013-09-21 21:31:00,49.0,43.1,29.86,WNW,288,0.0,4.0,80,0.00,,,0.02,VWS V14.01,2013-09-22 01:31:00,
2013-09-21 21:36:00,48.7,43.5,29.86,WNW,288,0.0,4.0,82,0.00,,,0.02,VWS V14.01,2013-09-22 01:36:00,
2013-09-21 21:41:00,48.5,43.6,29.86,NW,315,0.0,4.0,83,0.00,,,0.02,VWS V14.01,2013-09-22 01:41:00,
2013-09-21 21:46:00,48.3,43.1,29.86,NW,307,3.0,4.0,82,0.00,,,0.02,VWS V14.01,2013-09-22 01:46:00,
2013-09-21 21:51:00,48.3,42.8,29.87,NNW,339,0.0,4.0,81,0.00,,,0.02,VWS V14.01,2013-09-22 01:51:00,
2013-09-21 21:57:00,48.3,42.8,29.86,WNW,297,2.0,4.0,81,0.00,,,0.02,VWS V14.01,2013-09-22 01:57:00,
2013-09-21 22:02:00,48.4,42.5,29.87,NW,320,0.0,4.0,80,0.00,,,0.02,VWS V14.01,2013-09-22 02:02:00,
2013-09-21 22:07:00,48.7,41.5,29.87,NW,306,12.0,12.0,76,0.00,,,0.02,VWS V14.01,2013-09-22 02:07:00,
2013-09-21 22:12:00,48.8,41.6,29.86,NNW,336,1.0,4.0,76,0.00,,,0.02,VWS V14.01,2013-09-22 02:12:00,
2013-09-21 22:17:00,49.0,41.4,29.87,North,350,6.0,6.0,75,0.00,,,0.02,VWS V14.01,2013-09-22 02:17:00,
2013-09-21 22:22:00,49.0,41.4,29.87,WNW,284,0.0,4.0,75,0.00,,,0.02,VWS V14.01,2013-09-22 02:22:00,
2013-09-21 22:27:00,49.0,41.4,29.87,WNW,299,0.0,4.0,75,0.00,,,0.02,VWS V14.01,2013-09-22 02:27:00,
2013-09-21 22:32:00,49.0,41.4,29.87,NNE,21,8.0,8.0,75,0.00,,,0.02,VWS V14.01,2013-09-22 02:32:00,
2013-09-21 22:37:00,49.0,41.4,29.87,NW,325,5.0,5.0,75,0.00,,,0.02,VWS V14.01,2013-09-22 02:37:00,
2013-09-21 22:42:00,49.0,41.8,29.87,NW,325,8.0,8.0,76,0.00,,,0.02,VWS V14.01,2013-09-22 02:42:00,
2013-09-21 22:47:00,49.0,42.1,29.88,NNW,347,0.0,4.0,77,0.00,,,0.02,VWS V14.01,2013-09-22 02:47:00,
2013-09-21 22:52:00,49.0,41.8,29.88,NNW,335,0.0,4.0,76,0.00,,,0.02,VWS V14.01,2013-09-22 02:52:00,
2013-09-21 22:57:00,49.0,42.1,29.88,NW,318,0.0,4.0,77,0.00,,,0.02,VWS V14.01,2013-09-22 02:57:00,
2013-09-21 23:02:00,48.9,42.3,29.88,NNE,26,0.0,4.0,78,0.00,,,0.02,VWS V14.01,2013-09-22 03:02:00,
2013-09-21 23:07:00,48.8,41.9,29.88,NNE,15,8.0,8.0,77,0.00,,,0.02,VWS V14.01,2013-09-22 03:07:00,
2013-09-21 23:12:00,48.6,41.7,29.88,NW,306,4.0,4.0,77,0.00,,,0.02,VWS V14.01,2013-09-22 03:12:00,
2013-09-21 23:17:00,48.4,41.9,29.88,NNW,332,0.0,4.0,78,0.00,,,0.02,VWS V14.01,2013-09-22 03:17:00,
2013-09-21 23:23:00,48.2,41.7,29.88,North,5,0.0,4.0,78,0.00,,,0.02,VWS V14.01,2013-09-22 03:23:00,
2013-09-21 23:28:00,48.1,40.6,29.89,NNW,348,4.0,4.0,75,0.00,,,0.02,VWS V14.01,2013-09-22 03:28:00,
2013-09-21 23:33:00,48.2,40.3,29.88,North,355,3.0,4.0,74,0.00,,,0.02,VWS V14.01,2013-09-22 03:33:00,
2013-09-21 23:38:00,48.2,40.7,29.89,NW,325,6.0,6.0,75,0.00,,,0.02,VWS V14.01,2013-09-22 03:38:00,
2013-09-21 23:43:00,48.3,40.1,29.89,NW,320,0.0,4.0,73,0.00,,,0.02,VWS V14.01,2013-09-22 03:43:00,
2013-09-21 23:48:00,48.3,40.1,29.89,NW,315,0.0,4.0,73,0.00,,,0.02,VWS V14.01,2013-09-22 03:48:00,
2013-09-21 23:53:00,48.2,40.0,29.89,NW,317,0.0,4.0,73,0.00,,,0.02,VWS V14.01,2013-09-22 03:53:00,
2013-09-21 23:58:00,48.1,39.9,29.89,NW,326,0.0,4.0,73,0.00,,,0.02,VWS V14.01,2013-09-22 03:58:00,